Time;durP1;ratioP1;P1;durP2;ratioP2;P2;SDS_P1;SDS_P2;PMS_P1;PMS_P2;Temp;Humidity;BMP_temperature;BMP_pressure;BME280_temperature;BME280_humidity;BME280_pressure;Samples;Min_cycle;Max_cycle;Signal;HPM_P1;HPM_P2
2022/12/18 00:01:26;;;;;;;44.13;19.85;;;;;;;-2.99;92.40;102048.81;1739847;81;28325;-75
2022/12/18 00:03:54;;;;;;;53.17;22.95;;;;;;;-2.98;92.46;102056.23;1720459;83;25926;-76
2022/12/18 00:06:24;;;;;;;45.65;20.35;;;;;;;-2.93;92.62;102061.66;1719487;81;25763;-76
2022/12/18 00:08:51;;;;;;;46.48;20.55;;;;;;;-2.93;92.90;102055.59;1734445;81;25851;-76
2022/12/18 00:11:21;;;;;;;50.55;23.30;;;;;;;-2.93;92.90;102055.59;1733309;81;25811;-76
2022/12/18 00:13:48;;;;;;;48.17;22.15;;;;;;;-2.84;92.72;102063.89;1733248;81;27471;-76
2022/12/18 00:16:22;;;;;;;54.15;22.15;;;;;;;-2.81;92.61;102064.22;1730317;81;25811;-75
2022/12/18 00:18:52;;;;;;;52.60;21.20;;;;;;;-2.82;92.58;102054.19;1725041;83;26232;-76
2022/12/18 00:21:19;;;;;;;53.77;22.37;;;;;;;-2.80;92.56;102056.77;1733238;81;26180;-76
2022/12/18 00:23:48;;;;;;;54.00;22.82;;;;;;;-2.77;92.68;102061.86;1733410;81;25718;-75
2022/12/18 00:26:23;;;;;;;53.78;22.35;;;;;;;-2.77;92.68;102061.86;1731250;81;26907;-76
2022/12/18 00:28:52;;;;;;;54.85;24.23;;;;;;;-2.67;92.73;102071.88;1694119;82;25800;-76
2022/12/18 00:31:22;;;;;;;55.67;24.35;;;;;;;-2.63;92.73;102078.69;1723392;81;25793;-76
2022/12/18 00:33:49;;;;;;;55.80;23.45;;;;;;;-2.58;92.62;102085.05;1727728;82;26600;-75
2022/12/18 00:36:21;;;;;;;57.95;24.55;;;;;;;-2.57;92.62;102088.08;1716555;81;25703;-75
2022/12/18 00:38:48;;;;;;;60.17;26.52;;;;;;;-2.54;92.62;102087.48;1734321;81;27519;-75
2022/12/18 00:42:55;;;;;;;58.40;24.85;;;;;;;-2.52;92.60;102092.19;1736442;81;25447;-75
2022/12/18 00:43:45;;;;;;;57.75;25.43;;;;;;;-2.56;92.55;102091.94;1702127;83;25755;-75
2022/12/18 00:46:11;;;;;;;61.33;26.30;;;;;;;-2.55;92.58;102094.97;1726585;81;26551;-76
2022/12/18 00:48:38;;;;;;;60.23;27.00;;;;;;;-2.56;92.59;102097.64;1711083;82;26441;-76
2022/12/18 00:51:04;;;;;;;64.77;26.73;;;;;;;-2.58;92.72;102104.27;1705184;82;27458;-75
2022/12/18 00:53:31;;;;;;;64.80;26.25;;;;;;;-2.58;92.72;102104.27;1726891;81;25766;-75
2022/12/18 00:55:57;;;;;;;54.67;23.60;;;;;;;-2.59;92.73;102100.41;1726234;81;26552;-75
2022/12/18 00:58:23;;;;;;;65.87;28.10;;;;;;;-2.66;92.75;102102.45;1728885;82;25851;-75
2022/12/18 01:00:50;;;;;;;59.33;26.40;;;;;;;-2.60;92.80;102113.12;1734252;79;25734;-76
2022/12/18 01:03:16;;;;;;;70.83;26.48;;;;;;;-2.60;92.79;102121.84;1740874;81;27424;-75
2022/12/18 01:05:43;;;;;;;61.60;26.90;;;;;;;-2.62;92.77;102125.45;1732089;81;25906;-75
2022/12/18 01:08:11;;;;;;;55.52;22.55;;;;;;;-2.63;92.59;102121.97;1741347;81;25785;-75
2022/12/18 01:10:42;;;;;;;64.53;27.13;;;;;;;-2.70;92.46;102128.87;1735418;82;26632;-76
2022/12/18 01:13:08;;;;;;;59.70;25.77;;;;;;;-2.70;92.46;102128.87;1720218;82;25848;-76
2022/12/18 01:15:35;;;;;;;69.77;27.37;;;;;;;-2.71;92.48;102128.01;1734953;81;27631;-76
2022/12/18 01:18:01;;;;;;;62.80;27.10;;;;;;;-2.72;92.50;102130.25;1717536;83;25773;-76
2022/12/18 01:20:28;;;;;;;56.28;24.45;;;;;;;-2.78;92.28;102125.73;1723120;83;25781;-76
2022/12/18 01:22:54;;;;;;;60.10;24.90;;;;;;;-2.74;92.40;102133.85;1732459;81;25775;-76
2022/12/18 01:25:20;;;;;;;63.92;24.77;;;;;;;-2.78;92.19;102134.42;1731299;81;25736;-76
2022/12/18 01:27:46;;;;;;;61.85;24.63;;;;;;;-2.83;92.20;102135.09;1734340;81;27432;-75
2022/12/18 01:30:13;;;;;;;49.85;21.10;;;;;;;-2.83;92.20;102135.09;1733278;82;25849;-75
2022/12/18 01:32:39;;;;;;;56.48;23.00;;;;;;;-2.84;92.19;102145.63;1732690;81;25889;-75
2022/12/18 01:35:08;;;;;;;54.75;21.62;;;;;;;-2.90;92.12;102144.12;1734914;81;25767;-76
2022/12/18 01:37:34;;;;;;;63.83;24.20;;;;;;;-2.93;92.10;102151.27;1732772;81;25251;-76
2022/12/18 01:40:01;;;;;;;59.50;24.00;;;;;;;-2.96;92.15;102146.14;1741065;81;28299;-75
2022/12/18 01:42:27;;;;;;;56.08;21.77;;;;;;;-3.00;92.06;102157.67;1737420;81;25762;-76
2022/12/18 01:45:14;;;;;;;63.30;23.67;;;;;;;-3.06;91.99;102164.03;1729800;82;25744;-75
2022/12/18 01:47:56;;;;;;;56.63;22.40;;;;;;;-3.09;92.00;102166.76;1729406;81;25857;-75
2022/12/18 01:50:34;;;;;;;60.83;26.48;;;;;;;-3.09;92.15;102177.69;1740695;81;26487;-76
2022/12/18 01:53:20;;;;;;;60.98;26.57;;;;;;;-3.07;92.28;102178.48;1744900;81;27473;-76
2022/12/18 01:55:56;;;;;;;51.73;21.33;;;;;;;-3.05;92.25;102176.66;1733235;82;26459;-76
2022/12/18 01:58:37;;;;;;;58.90;24.47;;;;;;;-3.07;92.16;102176.72;1740099;81;25784;-75
2022/12/18 02:01:04;;;;;;;57.62;22.85;;;;;;;-3.07;92.21;102172.79;1744515;81;25792;-76
2022/12/18 02:03:32;;;;;;;58.98;24.45;;;;;;;-3.08;92.23;102196.00;1736857;81;26010;-76
2022/12/18 02:06:07;;;;;;;53.90;22.80;;;;;;;-3.09;92.12;102198.66;1753668;81;28255;-76
2022/12/18 02:09:03;;;;;;;53.90;20.70;;;;;;;-3.10;92.13;102208.77;1734189;82;26423;-75
2022/12/18 02:11:41;;;;;;;59.10;22.62;;;;;;;-3.10;92.24;102213.52;1736370;81;25625;-76
2022/12/18 02:14:25;;;;;;;64.72;23.25;;;;;;;-3.11;92.19;102211.84;1685152;82;26502;-75
2022/12/18 02:17:17;;;;;;;59.13;22.10;;;;;;;-3.09;92.20;102222.25;1732061;81;25833;-76
2022/12/18 02:20:01;;;;;;;56.58;22.17;;;;;;;-3.14;92.16;102228.53;1728496;81;28346;-75
2022/12/18 02:22:50;;;;;;;60.28;24.30;;;;;;;-3.12;92.23;102235.88;1725492;81;25990;-76
2022/12/18 02:25:56;;;;;;;59.25;23.35;;;;;;;-3.09;92.34;102234.05;1740411;81;25848;-75
2022/12/18 02:28:26;;;;;;;61.70;25.23;;;;;;;-3.07;92.33;102239.63;1699563;82;26479;-75
2022/12/18 02:30:56;;;;;;;63.02;23.77;;;;;;;-3.07;92.23;102237.01;1743952;81;25760;-75
2022/12/18 02:33:29;;;;;;;59.77;24.47;;;;;;;-3.06;92.24;102236.11;1721488;81;27463;-76
2022/12/18 02:35:59;;;;;;;54.10;21.60;;;;;;;-3.09;92.02;102245.39;1731634;81;25607;-76
2022/12/18 02:38:28;;;;;;;63.43;27.63;;;;;;;-3.10;92.10;102245.45;1730345;81;26750;-76
2022/12/18 02:40:57;;;;;;;71.02;26.37;;;;;;;-3.12;92.10;102245.05;1723846;81;25797;-75
2022/12/18 02:43:24;;;;;;;57.33;24.15;;;;;;;-3.15;92.07;102247.80;1729134;81;25511;-75
2022/12/18 02:45:55;;;;;;;62.33;25.00;;;;;;;-3.15;92.14;102255.66;1728695;81;27454;-75
2022/12/18 02:48:32;;;;;;;60.83;24.05;;;;;;;-3.14;92.21;102262.59;1728715;82;26462;-75
2022/12/18 02:51:10;;;;;;;59.35;25.62;;;;;;;-3.10;92.23;102265.11;1730182;82;26072;-75
2022/12/18 02:53:51;;;;;;;58.52;25.12;;;;;;;-3.10;92.12;102263.32;1727897;81;27030;-75
2022/12/18 02:56:45;;;;;;;62.60;22.98;;;;;;;-3.11;92.09;102264.25;1741051;81;25793;-75
2022/12/18 02:59:18;;;;;;;62.13;23.52;;;;;;;-3.12;92.00;102255.15;1744896;81;28311;-76
2022/12/18 03:01:57;;;;;;;53.10;23.27;;;;;;;-3.09;92.06;102267.67;1737886;81;25874;-76
2022/12/18 03:04:41;;;;;;;62.20;24.57;;;;;;;-3.11;91.97;102265.56;1714674;83;25754;-76
2022/12/18 03:07:13;;;;;;;57.88;22.95;;;;;;;-3.10;92.00;102282.15;1724342;81;26566;-75
2022/12/18 03:09:45;;;;;;;65.47;24.35;;;;;;;-3.10;91.94;102284.77;1724796;83;25887;-76
2022/12/18 03:12:22;;;;;;;54.10;24.20;;;;;;;-3.09;92.01;102295.19;1691785;83;29064;-75
2022/12/18 03:15:06;;;;;;;63.42;24.18;;;;;;;-3.06;92.13;102302.08;1694017;83;25832;-75
2022/12/18 03:17:34;;;;;;;54.63;21.27;;;;;;;-3.06;92.13;102302.08;1716479;82;25766;-75
2022/12/18 03:20:09;;;;;;;61.05;24.55;;;;;;;-3.06;91.97;102311.25;1731019;82;26066;-75
2022/12/18 03:22:38;;;;;;;60.03;26.50;;;;;;;-3.05;91.99;102308.56;1733013;81;25994;-76
2022/12/18 03:25:09;;;;;;;65.22;24.12;;;;;;;-2.99;92.09;102308.81;1740018;81;27578;-75
2022/12/18 03:27:40;;;;;;;55.67;22.45;;;;;;;-2.94;92.04;102301.60;1732680;82;25829;-76
2022/12/18 03:30:12;;;;;;;57.67;22.77;;;;;;;-2.95;91.75;102303.36;1700996;82;25843;-75
2022/12/18 03:32:44;;;;;;;59.30;24.20;;;;;;;-2.97;91.51;102303.88;1737042;81;25783;-75
2022/12/18 03:35:19;;;;;;;53.87;21.73;;;;;;;-2.97;91.50;102305.19;1717115;83;26065;-75
2022/12/18 03:37:45;;;;;;;65.50;26.68;;;;;;;-2.99;91.06;102307.50;1723118;83;28325;-76
2022/12/18 03:40:12;;;;;;;54.65;21.25;;;;;;;-2.99;91.06;102307.50;1726050;81;25824;-75
2022/12/18 03:42:59;;;;;;;51.13;22.13;;;;;;;-2.98;91.03;102313.12;1724120;81;25905;-76
2022/12/18 03:45:37;;;;;;;60.12;24.75;;;;;;;-3.03;91.19;102315.91;1677882;84;26549;-75
2022/12/18 03:48:16;;;;;;;52.33;22.40;;;;;;;-3.03;91.19;102315.91;1741806;81;26374;-75
2022/12/18 03:51:02;;;;;;;62.30;25.05;;;;;;;-2.94;91.22;102330.44;1736901;81;27757;-76
2022/12/18 03:54:00;;;;;;;60.28;25.32;;;;;;;-2.94;91.16;102323.44;1725981;82;25735;-76
2022/12/18 03:56:39;;;;;;;58.78;23.67;;;;;;;-2.90;91.26;102327.64;1732472;81;26468;-75
2022/12/18 03:59:08;;;;;;;66.77;26.20;;;;;;;-2.89;91.23;102334.61;1744135;81;25715;-75
2022/12/18 04:01:46;;;;;;;64.17;25.55;;;;;;;-2.85;91.09;102341.44;1711522;83;25914;-75
2022/12/18 04:04:16;;;;;;;67.70;26.07;;;;;;;-2.82;90.94;102343.92;1705805;83;28186;-76
2022/12/18 04:06:46;;;;;;;61.77;25.72;;;;;;;-2.82;90.94;102343.92;1737747;81;26484;-75
2022/12/18 04:09:13;;;;;;;57.60;22.87;;;;;;;-2.88;90.43;102355.10;1720274;81;26094;-75
2022/12/18 04:11:45;;;;;;;62.53;25.23;;;;;;;-2.88;90.43;102355.10;1727809;82;25782;-76
2022/12/18 04:14:14;;;;;;;57.98;23.22;;;;;;;-2.91;90.24;102349.55;1690939;83;25296;-75
2022/12/18 04:16:41;;;;;;;62.10;24.07;;;;;;;-2.94;90.08;102355.34;1736529;81;26930;-76
2022/12/18 04:19:09;;;;;;;57.62;24.02;;;;;;;-3.00;89.98;102359.52;1719793;83;25754;-75
2022/12/18 04:21:37;;;;;;;63.38;25.92;;;;;;;-3.02;90.15;102366.58;1714447;82;25758;-76
2022/12/18 04:24:04;;;;;;;50.92;22.67;;;;;;;-3.02;90.15;102364.82;1731722;81;25839;-75
2022/12/18 04:26:32;;;;;;;62.73;24.07;;;;;;;-3.02;90.05;102375.75;1728392;81;25784;-75
2022/12/18 04:29:00;;;;;;;55.15;22.58;;;;;;;-3.06;90.05;102375.47;1695887;81;27444;-75
2022/12/18 04:31:27;;;;;;;59.85;23.87;;;;;;;-3.12;89.92;102380.47;1731091;81;26563;-75
2022/12/18 04:33:54;;;;;;;62.35;24.67;;;;;;;-3.12;89.92;102380.47;1753121;81;25473;-77
2022/12/18 04:36:21;;;;;;;56.90;25.08;;;;;;;-3.16;89.88;102380.19;1707880;83;25804;-75
2022/12/18 04:38:47;;;;;;;55.05;23.07;;;;;;;-3.12;89.92;102385.70;1703109;82;25962;-75
2022/12/18 04:41:15;;;;;;;55.70;24.30;;;;;;;-3.12;89.79;102390.95;1741410;81;27471;-76
2022/12/18 04:43:42;;;;;;;63.48;23.15;;;;;;;-3.12;89.57;102397.50;1732358;82;25837;-76
2022/12/18 04:46:09;;;;;;;57.27;23.75;;;;;;;-3.17;89.48;102400.32;1720959;83;26998;-76
2022/12/18 04:48:36;;;;;;;59.27;24.87;;;;;;;-3.22;89.48;102416.66;1714968;82;25850;-75
2022/12/18 04:51:03;;;;;;;55.88;22.80;;;;;;;-3.19;89.77;102415.70;1732922;81;25762;-75
2022/12/18 04:53:29;;;;;;;59.93;23.98;;;;;;;-3.12;89.91;102422.88;1737884;81;28266;-75
2022/12/18 04:56:09;;;;;;;60.20;25.40;;;;;;;-3.12;89.91;102422.88;1731387;81;25777;-75
2022/12/18 04:58:37;;;;;;;68.87;26.65;;;;;;;-3.10;89.58;102433.69;1703428;82;25743;-75
2022/12/18 05:01:04;;;;;;;62.83;24.25;;;;;;;-3.09;89.53;102435.86;1728145;81;26438;-76
2022/12/18 05:03:30;;;;;;;67.75;27.17;;;;;;;-3.08;89.58;102438.45;1723257;81;25819;-75
2022/12/18 05:05:57;;;;;;;65.03;27.32;;;;;;;-3.10;89.68;102428.92;1720416;81;27469;-76
2022/12/18 05:08:23;;;;;;;71.35;26.48;;;;;;;-3.06;89.44;102443.63;1722793;81;25858;-75
2022/12/18 05:10:50;;;;;;;66.60;27.52;;;;;;;-2.99;89.68;102452.51;1702562;83;25823;-76
2022/12/18 05:13:18;;;;;;;61.85;26.50;;;;;;;-2.99;89.68;102452.51;1721401;82;26176;-75
2022/12/18 05:15:50;;;;;;;63.58;28.40;;;;;;;-3.03;89.34;102448.73;1702171;83;26338;-75
2022/12/18 05:18:16;;;;;;;60.15;24.32;;;;;;;-3.04;89.41;102449.22;1724260;81;27093;-75
2022/12/18 05:20:42;;;;;;;60.80;24.90;;;;;;;-3.02;89.36;102449.16;1701010;83;25758;-76
2022/12/18 05:23:08;;;;;;;67.15;26.37;;;;;;;-3.06;88.96;102441.00;1725698;82;26619;-75
2022/12/18 05:25:35;;;;;;;58.87;24.52;;;;;;;-3.01;89.06;102454.33;1697352;82;25864;-75
2022/12/18 05:28:01;;;;;;;64.70;25.45;;;;;;;-3.07;88.92;102446.69;1722561;82;25744;-75
2022/12/18 05:30:27;;;;;;;60.28;23.50;;;;;;;-3.12;88.86;102442.06;1728636;81;28290;-75
2022/12/18 05:32:54;;;;;;;63.13;24.85;;;;;;;-3.06;88.85;102456.73;1732942;81;25845;-76
2022/12/18 05:35:20;;;;;;;62.30;25.70;;;;;;;-3.05;88.95;102456.67;1731202;81;26403;-76
2022/12/18 05:37:46;;;;;;;62.90;25.08;;;;;;;-3.03;88.87;102464.47;1730696;82;25836;-75
2022/12/18 05:40:13;;;;;;;57.78;24.00;;;;;;;-3.03;88.88;102465.33;1731249;81;26412;-76
2022/12/18 05:42:39;;;;;;;51.18;21.80;;;;;;;-3.01;88.76;102465.27;1725750;81;27531;-75
2022/12/18 05:45:06;;;;;;;63.48;25.12;;;;;;;-3.00;88.71;102461.75;1733994;81;25784;-75
2022/12/18 05:47:33;;;;;;;63.52;29.10;;;;;;;-3.06;88.61;102458.91;1729945;82;25859;-76
2022/12/18 05:49:59;;;;;;;84.40;37.85;;;;;;;-3.00;88.50;102477.03;1730382;81;26958;-76
2022/12/18 05:52:25;;;;;;;81.50;34.80;;;;;;;-3.00;88.45;102477.48;1727892;81;25901;-75
2022/12/18 05:54:52;;;;;;;94.07;44.93;;;;;;;-2.99;88.54;102477.89;1726981;82;27447;-76
2022/12/18 05:57:18;;;;;;;86.50;40.73;;;;;;;-2.98;88.61;102484.37;1730220;82;25898;-76
2022/12/18 05:59:44;;;;;;;65.85;30.25;;;;;;;-2.97;88.57;102488.70;1731315;81;25766;-75
2022/12/18 06:02:11;;;;;;;78.17;33.88;;;;;;;-3.00;88.79;102476.16;1728933;82;26524;-76
2022/12/18 06:04:37;;;;;;;67.50;29.85;;;;;;;-3.00;88.79;102476.16;1730290;82;25932;-75
2022/12/18 06:07:03;;;;;;;76.70;33.60;;;;;;;-2.95;88.60;102496.05;1730475;81;27575;-76
2022/12/18 06:09:29;;;;;;;75.52;29.70;;;;;;;-2.95;88.68;102503.91;1731418;81;25829;-76
2022/12/18 06:11:56;;;;;;;71.85;30.17;;;;;;;-2.96;88.59;102507.47;1728284;81;25946;-76
2022/12/18 06:14:22;;;;;;;64.12;28.50;;;;;;;-2.96;88.66;102505.29;1727481;81;25780;-75
2022/12/18 06:16:52;;;;;;;64.15;30.15;;;;;;;-2.98;88.59;102512.35;1731903;81;25809;-75
2022/12/18 06:19:18;;;;;;;67.08;32.05;;;;;;;-3.01;88.80;102519.00;1731558;81;27433;-76
2022/12/18 06:21:45;;;;;;;65.72;28.25;;;;;;;-3.01;88.80;102519.00;1731897;81;25903;-76
2022/12/18 06:24:11;;;;;;;70.97;29.77;;;;;;;-3.08;88.62;102514.91;1723489;81;26534;-75
2022/12/18 06:26:39;;;;;;;69.07;30.40;;;;;;;-3.05;88.80;102532.68;1729659;81;25744;-76
2022/12/18 06:29:06;;;;;;;68.65;28.70;;;;;;;-3.09;88.91;102536.32;1727856;81;25793;-75
2022/12/18 06:31:32;;;;;;;63.20;28.67;;;;;;;-3.02;88.94;102544.39;1729263;81;27438;-76
2022/12/18 06:33:58;;;;;;;80.60;29.25;;;;;;;-3.01;88.87;102550.45;1724570;81;25832;-76
2022/12/18 06:36:25;;;;;;;62.62;28.15;;;;;;;-3.00;88.90;102547.81;1724484;82;25815;-75
2022/12/18 06:38:51;;;;;;;70.60;31.23;;;;;;;-2.99;88.96;102556.54;1724420;81;25752;-75
2022/12/18 06:41:20;;;;;;;69.60;30.25;;;;;;;-3.03;89.09;102549.66;1727969;82;25761;-75
2022/12/18 06:43:47;;;;;;;75.17;32.93;;;;;;;-2.99;88.80;102563.09;1732027;81;28276;-75
2022/12/18 06:46:13;;;;;;;72.80;32.78;;;;;;;-3.01;88.81;102559.19;1732140;81;26390;-75
2022/12/18 06:48:40;;;;;;;72.47;31.45;;;;;;;-3.03;88.75;102563.62;1727764;81;25314;-75
2022/12/18 06:51:06;;;;;;;74.72;32.33;;;;;;;-3.01;88.92;102576.67;1728032;81;26560;-75
2022/12/18 06:53:33;;;;;;;80.50;33.05;;;;;;;-3.01;88.90;102580.16;1731075;81;25925;-75
2022/12/18 06:56:05;;;;;;;71.85;31.10;;;;;;;-3.01;88.91;102575.36;1731126;82;27466;-76
2022/12/18 06:58:33;;;;;;;76.40;30.82;;;;;;;-3.03;88.68;102579.80;1719003;83;25904;-76
2022/12/18 07:01:06;;;;;;;69.90;31.70;;;;;;;-3.03;88.68;102579.80;1713403;81;25955;-75
2022/12/18 07:03:32;;;;;;;62.53;29.67;;;;;;;-3.08;88.73;102570.81;1705326;82;25842;-75
2022/12/18 07:05:59;;;;;;;71.53;31.57;;;;;;;-3.06;88.78;102575.55;1708805;83;25794;-76
2022/12/18 07:08:25;;;;;;;71.30;31.75;;;;;;;-3.05;88.70;102586.87;1724956;81;27448;-75
2022/12/18 07:10:53;;;;;;;77.53;33.80;;;;;;;-3.05;88.70;102586.87;1719029;81;25913;-75
2022/12/18 07:13:20;;;;;;;84.52;34.85;;;;;;;-3.13;88.67;102580.59;1703809;83;25814;-76
2022/12/18 07:15:46;;;;;;;73.60;32.65;;;;;;;-3.04;88.88;102597.77;1717109;82;26568;-76
2022/12/18 07:18:12;;;;;;;80.90;35.05;;;;;;;-3.09;88.74;102594.44;1706301;83;26508;-76
2022/12/18 07:20:38;;;;;;;80.07;35.28;;;;;;;-3.04;88.78;102606.95;1702653;82;27534;-76
2022/12/18 07:23:05;;;;;;;84.80;34.20;;;;;;;-3.03;88.69;102608.64;1723736;81;25820;-76
2022/12/18 07:25:36;;;;;;;73.47;33.67;;;;;;;-3.03;88.68;102619.13;1737550;81;25927;-76
2022/12/18 07:28:02;;;;;;;75.37;32.58;;;;;;;-3.01;88.80;102625.17;1735408;81;35361;-76
2022/12/18 07:30:29;;;;;;;70.17;30.40;;;;;;;-3.00;88.72;102628.21;1719859;81;25974;-76
2022/12/18 07:32:55;;;;;;;70.92;32.53;;;;;;;-3.04;88.52;102639.27;1726864;81;26966;-75
2022/12/18 07:35:22;;;;;;;78.17;34.10;;;;;;;-3.09;88.54;102641.17;1742352;81;26380;-76
2022/12/18 07:37:48;;;;;;;86.67;37.08;;;;;;;-3.07;88.71;102643.28;1707257;81;26436;-75
2022/12/18 07:40:14;;;;;;;82.85;35.15;;;;;;;-3.07;88.71;102643.28;1737468;81;25774;-76
2022/12/18 07:42:41;;;;;;;68.30;29.57;;;;;;;-3.08;88.83;102648.14;1702894;83;26057;-76
2022/12/18 07:45:08;;;;;;;71.15;31.17;;;;;;;-3.09;88.73;102657.34;1727126;81;27447;-75
2022/12/18 07:47:38;;;;;;;84.42;38.28;;;;;;;-3.09;88.73;102657.34;1734322;82;25760;-76
2022/12/18 07:50:06;;;;;;;83.17;34.88;;;;;;;-3.12;88.90;102655.67;1725385;81;25816;-75
2022/12/18 07:52:32;;;;;;;73.35;32.25;;;;;;;-3.05;89.04;102662.44;1721207;81;25945;-75
2022/12/18 07:54:58;;;;;;;83.33;34.25;;;;;;;-3.03;89.03;102665.86;1718842;81;25831;-76
2022/12/18 07:57:25;;;;;;;82.88;34.83;;;;;;;-3.02;89.13;102671.53;1701389;83;27490;-76
2022/12/18 07:59:51;;;;;;;82.90;32.48;;;;;;;-3.03;89.23;102670.24;1709072;83;25754;-75
2022/12/18 08:02:17;;;;;;;79.95;34.38;;;;;;;-2.95;89.25;102682.67;1739004;81;26005;-76
2022/12/18 08:04:43;;;;;;;75.42;32.85;;;;;;;-2.93;89.19;102688.72;1738258;81;26573;-75
2022/12/18 08:07:10;;;;;;;73.85;32.15;;;;;;;-2.97;89.29;102691.88;1736401;81;25827;-76
2022/12/18 08:09:36;;;;;;;79.07;31.37;;;;;;;-2.97;89.29;102691.88;1727626;81;27460;-75
2022/12/18 08:12:03;;;;;;;83.82;38.83;;;;;;;-2.87;89.46;102701.18;1731238;81;26197;-75
2022/12/18 08:14:29;;;;;;;86.60;35.75;;;;;;;-2.87;89.46;102701.18;1712207;82;26428;-76
2022/12/18 08:16:55;;;;;;;112.32;49.75;;;;;;;-2.77;89.59;102703.03;1731064;81;25811;-76
2022/12/18 08:19:22;;;;;;;116.82;51.02;;;;;;;-2.77;89.59;102703.03;1740823;81;26550;-75
2022/12/18 08:21:48;;;;;;;95.83;41.50;;;;;;;-2.72;89.63;102697.19;1735915;81;27421;-75
2022/12/18 08:24:15;;;;;;;88.52;37.38;;;;;;;-2.65;89.67;102693.46;1737370;81;25815;-75
2022/12/18 08:26:41;;;;;;;86.60;37.88;;;;;;;-2.61;89.44;102691.97;1732254;81;26086;-76
2022/12/18 08:29:10;;;;;;;99.35;40.10;;;;;;;-2.55;89.85;102698.79;1723222;81;25933;-75
2022/12/18 08:31:37;;;;;;;84.33;37.47;;;;;;;-2.53;89.93;102690.41;1731831;81;25942;-76
2022/12/18 08:34:03;;;;;;;96.85;40.03;;;;;;;-2.36;90.12;102709.05;1730896;81;27452;-76
2022/12/18 08:36:30;;;;;;;85.47;36.13;;;;;;;-2.38;89.31;102705.18;1731530;81;25871;-76
2022/12/18 08:38:56;;;;;;;95.32;40.00;;;;;;;-2.37;89.16;102700.77;1721823;81;25896;-76
2022/12/18 08:41:23;;;;;;;109.15;43.70;;;;;;;-2.35;89.31;102711.62;1699785;82;25813;-75
2022/12/18 08:46:38;;;;;;;103.30;43.23;;;;;;;-2.28;89.13;102713.58;1702263;82;27457;-75
2022/12/18 08:49:05;;;;;;;103.35;42.62;;;;;;;-2.25;89.28;102719.17;1713717;83;25787;-76
2022/12/18 08:51:33;;;;;;;122.02;55.23;;;;;;;-2.21;89.22;102721.65;1703470;83;25810;-76
2022/12/18 08:54:00;;;;;;;94.10;44.55;;;;;;;-2.17;89.12;102723.70;1705003;83;25795;-75
2022/12/18 08:56:26;;;;;;;91.63;43.13;;;;;;;-2.17;88.86;102721.07;1738195;81;25538;-76
2022/12/18 08:58:54;;;;;;;104.23;45.05;;;;;;;-2.19;88.57;102721.14;1734437;81;27450;-75
2022/12/18 09:01:21;;;;;;;104.80;44.23;;;;;;;-2.17;88.89;102733.75;1728369;81;26420;-76
2022/12/18 09:03:50;;;;;;;106.17;44.70;;;;;;;-2.13;88.76;102735.80;1728274;81;25800;-76
2022/12/18 09:06:21;;;;;;;99.80;40.52;;;;;;;-2.13;88.73;102738.42;1738075;81;25746;-75
2022/12/18 09:08:47;;;;;;;146.50;63.68;;;;;;;-2.14;88.46;102748.54;1727594;81;25818;-76
2022/12/18 09:11:24;;;;;;;154.57;67.25;;;;;;;-2.14;88.56;102760.36;1727344;81;27449;-75
2022/12/18 09:14:00;;;;;;;116.35;52.00;;;;;;;-2.10;88.63;102756.70;1733699;81;25939;-90
2022/12/18 09:16:37;;;;;;;108.35;45.08;;;;;;;-2.10;88.59;102758.02;1728286;81;26055;-85
2022/12/18 09:19:01;;;;;;;96.65;40.23;;;;;;;-2.09;88.61;102754.02;1713510;82;26325;-83
2022/12/18 09:21:31;;;;;;;90.03;37.70;;;;;;;-2.09;88.51;102757.09;1723495;81;26333;-85
2022/12/18 09:23:58;;;;;;;99.55;40.58;;;;;;;-2.07;88.36;102754.82;1715686;82;27741;-85
2022/12/18 09:26:25;;;;;;;80.65;34.50;;;;;;;-2.05;88.39;102753.48;1737523;81;25856;-85
2022/12/18 09:28:55;;;;;;;82.45;34.50;;;;;;;-2.05;88.18;102750.38;1740965;81;25781;-88
2022/12/18 09:31:23;;;;;;;87.10;37.93;;;;;;;-2.04;88.05;102752.10;1752395;81;25987;-86
2022/12/18 09:33:49;;;;;;;88.47;36.85;;;;;;;-2.04;88.10;102747.30;1705481;83;25861;-83
2022/12/18 09:36:18;;;;;;;88.78;37.03;;;;;;;-1.99;88.23;102753.26;1734035;81;27450;-85
2022/12/18 09:38:44;;;;;;;80.55;34.18;;;;;;;-1.95;88.24;102757.48;1700995;82;25910;-86
2022/12/18 09:41:47;;;;;;;80.05;37.95;;;;;;;-1.95;88.00;102759.66;1731450;82;25732;-81
2022/12/18 09:44:42;;;;;;;82.20;36.38;;;;;;;-1.95;87.84;102760.97;1726374;83;26652;-81
2022/12/18 09:47:23;;;;;;;84.87;38.20;;;;;;;-1.95;87.69;102767.55;1728407;81;25948;-82
2022/12/18 09:49:58;;;;;;;78.55;35.15;;;;;;;-1.95;87.68;102770.16;1723532;82;27547;-85
2022/12/18 09:52:45;;;;;;;84.15;36.17;;;;;;;-1.92;87.62;102767.86;1701671;82;25884;-75
2022/12/18 09:55:29;;;;;;;79.82;32.05;;;;;;;-1.86;87.83;102770.30;1699321;83;25856;-75
2022/12/18 09:58:01;;;;;;;75.35;34.98;;;;;;;-1.79;87.76;102780.96;1739410;81;25830;-82
2022/12/18 10:00:27;;;;;;;78.90;34.92;;;;;;;-1.77;87.55;102771.25;1742543;81;26071;-75
2022/12/18 10:03:10;;;;;;;79.82;34.95;;;;;;;-1.76;87.61;102771.22;1732838;81;27458;-85
2022/12/18 10:06:02;;;;;;;75.62;33.42;;;;;;;-1.71;87.33;102772.37;1726295;81;25511;-88
2022/12/18 10:08:48;;;;;;;88.85;36.35;;;;;;;-1.73;86.87;102771.54;1735944;81;25874;-86
2022/12/18 10:11:41;;;;;;;87.00;36.90;;;;;;;-1.74;87.22;102772.02;1730865;82;26614;-88
2022/12/18 10:14:25;;;;;;;88.78;39.92;;;;;;;-1.68;87.47;102764.36;1730585;81;26018;-93
2022/12/18 10:17:07;;;;;;;100.50;43.35;;;;;;;-1.63;87.46;102760.67;1739423;81;27638;-79
2022/12/18 10:19:51;;;;;;;119.85;63.48;;;;;;;-1.59;87.41;102767.52;1736247;81;26040;-89
2022/12/18 10:22:32;;;;;;;91.53;43.98;;;;;;;-1.59;87.28;102770.60;1732704;82;25798;-88
2022/12/18 10:25:28;;;;;;;95.80;43.58;;;;;;;-1.57;87.28;102769.64;1737377;81;26614;-81
2022/12/18 10:28:02;;;;;;;91.08;39.40;;;;;;;-1.53;87.40;102777.39;1717974;81;26435;-84
2022/12/18 10:30:37;;;;;;;105.72;44.70;;;;;;;-1.51;87.23;102776.42;1731830;82;28354;-89
2022/12/18 10:33:06;;;;;;;96.78;39.95;;;;;;;-1.48;87.16;102776.77;1708928;82;25438;-91
2022/12/18 10:35:31;;;;;;;107.22;49.25;;;;;;;-1.46;87.19;102776.26;1702522;82;25578;-82
2022/12/18 10:38:19;;;;;;;93.70;43.42;;;;;;;-1.41;87.43;102773.02;1733195;82;25990;-82
2022/12/18 10:41:05;;;;;;;89.67;41.02;;;;;;;-1.39;87.28;102775.13;1719464;82;25335;-80
2022/12/18 10:43:55;;;;;;;92.00;39.33;;;;;;;-1.40;87.07;102770.31;1734570;81;27478;-91
2022/12/18 10:46:14;;;;;;;87.60;39.92;;;;;;;-1.43;86.70;102769.59;1721891;81;25344;-83
2022/12/18 10:48:57;;;;;;;91.10;38.60;;;;;;;-1.46;86.57;102765.30;1733294;81;25852;-88
2022/12/18 10:51:37;;;;;;;88.42;38.88;;;;;;;-1.45;86.74;102766.16;1750615;81;25767;-85
2022/12/18 10:54:15;;;;;;;;;;;;;;;-1.40;87.07;102757.62;1724500;82;25846;-85
2022/12/18 10:56:42;;;;;;;81.60;34.88;;;;;;;-1.33;87.09;102759.11;1721030;82;26893;-84
2022/12/18 10:59:13;;;;;;;79.80;32.35;;;;;;;-1.34;86.60;102765.27;1724320;81;26500;-83
2022/12/18 11:01:49;;;;;;;;;;;;;;;-1.39;86.25;102766.75;1721290;82;25854;-84
2022/12/18 11:04:22;;;;;;;86.02;35.35;;;;;;;-1.39;86.54;102760.67;1732423;82;26749;-85
2022/12/18 11:07:03;;;;;;;88.03;37.73;;;;;;;-1.39;86.51;102753.61;1722298;81;25668;-88
2022/12/18 11:09:34;;;;;;;81.42;36.03;;;;;;;-1.40;86.46;102755.86;1724533;82;27472;-86
2022/12/18 11:12:03;;;;;;;;;;;;;;;-1.39;86.53;102756.73;1733463;81;25719;-85
2022/12/18 11:14:38;;;;;;;88.00;37.25;;;;;;;-1.39;86.55;102755.41;1727079;82;25902;-83
2022/12/18 11:17:04;;;;;;;94.30;40.10;;;;;;;-1.40;86.67;102759.80;1720171;82;25950;-87
2022/12/18 11:19:40;;;;;;;87.57;36.58;;;;;;;-1.41;86.53;102759.88;1714730;82;25816;-82
2022/12/18 11:22:28;;;;;;;88.05;36.68;;;;;;;-1.41;86.59;102763.33;1706097;82;28284;-83
2022/12/18 11:25:05;;;;;;;85.12;36.50;;;;;;;-1.39;86.69;102772.02;1734018;82;25937;-79
2022/12/18 11:27:32;;;;;;;82.27;35.00;;;;;;;-1.41;86.31;102783.53;1729651;81;25885;-84
2022/12/18 11:30:25;;;;;;;143.43;55.90;;;;;;;-1.44;86.05;102787.12;1741592;81;26374;-78